Time;durP1;ratioP1;P1;durP2;ratioP2;P2;SDS_P1;SDS_P2;PMS_P1;PMS_P2;Temp;Humidity;BMP_temperature;BMP_pressure;BME280_temperature;BME280_humidity;BME280_pressure;Samples;Min_cycle;Max_cycle;Signal;HPM_P1;HPM_P2
2023/07/12 00:02:55;;;;;;;5.30;2.90;;;30.30;82.10;;;;;;10866287;32;20047;-70
2023/07/12 00:08:57;;;;;;;5.65;3.53;;;30.30;82.40;;;;;;10866166;32;20046;-71
2023/07/12 00:14:59;;;;;;;4.22;3.28;;;30.30;82.40;;;;;;10866183;32;20024;-70
2023/07/12 00:21:01;;;;;;;3.72;2.37;;;30.20;82.30;;;;;;10867411;32;20075;-71
2023/07/12 00:27:03;;;;;;;6.85;4.45;;;30.20;82.50;;;;;;10872696;32;20042;-71
2023/07/12 00:33:09;;;;;;;5.95;3.40;;;30.10;82.50;;;;;;10872462;32;20032;-71
2023/07/12 00:39:12;;;;;;;6.07;4.05;;;29.90;82.70;;;;;;10872316;32;20059;-70
2023/07/12 00:45:15;;;;;;;5.68;3.20;;;30.00;82.90;;;;;;10872250;32;20390;-71
2023/07/12 00:51:21;;;;;;;6.28;3.92;;;29.90;83.10;;;;;;10871916;32;20038;-71
2023/07/12 00:57:28;;;;;;;5.15;3.45;;;30.00;83.30;;;;;;10871767;32;20437;-71
2023/07/12 01:03:44;;;;;;;8.07;3.83;;;30.00;83.20;;;;;;10871621;32;20020;-71
2023/07/12 01:09:46;;;;;;;4.95;3.33;;;30.10;83.10;;;;;;10870291;32;20050;-71
2023/07/12 01:15:49;;;;;;;5.53;3.58;;;30.10;82.80;;;;;;10871881;32;20038;-71
2023/07/12 01:21:53;;;;;;;3.75;2.20;;;30.00;83.00;;;;;;10858308;32;20063;-71
2023/07/12 01:27:55;;;;;;;5.72;2.87;;;30.10;82.90;;;;;;10870707;32;20038;-71
2023/07/12 01:33:57;;;;;;;4.30;2.97;;;30.10;82.90;;;;;;10869803;32;20106;-71
2023/07/12 01:40:01;;;;;;;5.82;3.40;;;30.20;82.80;;;;;;10870880;32;20043;-71
2023/07/12 01:46:04;;;;;;;4.43;2.67;;;30.20;82.90;;;;;;10871296;32;20028;-71
2023/07/12 01:52:06;;;;;;;6.65;3.50;;;30.10;83.10;;;;;;10869826;32;20023;-71
2023/07/12 01:58:09;;;;;;;6.75;3.33;;;30.10;83.40;;;;;;10856196;32;20338;-71
2023/07/12 02:04:11;;;;;;;6.60;3.30;;;30.10;83.70;;;;;;10870651;32;20306;-71
2023/07/12 02:10:15;;;;;;;7.68;3.22;;;30.00;83.70;;;;;;10870372;32;20024;-71
2023/07/12 02:16:17;;;;;;;5.00;3.80;;;29.90;83.60;;;;;;10870160;32;20038;-70
2023/07/12 02:22:19;;;;;;;6.32;4.40;;;29.80;83.60;;;;;;10869420;32;20023;-71
2023/07/12 02:28:21;;;;;;;8.32;4.93;;;29.70;83.80;;;;;;10842596;32;20063;-70
2023/07/12 02:34:23;;;;;;;9.23;6.12;;;29.50;84.10;;;;;;10869251;32;20051;-72
2023/07/12 02:40:26;;;;;;;7.30;5.22;;;29.30;83.90;;;;;;10868829;32;20046;-68
2023/07/12 02:46:28;;;;;;;7.10;4.50;;;29.20;84.30;;;;;;10868776;32;20028;-72
2023/07/12 02:52:30;;;;;;;5.70;4.10;;;29.10;84.30;;;;;;10869054;32;20028;-72
2023/07/12 02:58:32;;;;;;;5.75;3.62;;;29.10;84.70;;;;;;10868235;32;20028;-70
2023/07/12 03:04:35;;;;;;;9.75;4.90;;;29.20;84.50;;;;;;10868189;32;20330;-70
2023/07/12 03:10:37;;;;;;;6.50;4.47;;;29.10;83.10;;;;;;10868026;32;20050;-70
2023/07/12 03:16:39;;;;;;;5.43;3.72;;;29.00;81.90;;;;;;10867718;32;20012;-71
2023/07/12 03:22:41;;;;;;;5.72;3.22;;;29.00;82.40;;;;;;10868250;32;20077;-72
2023/07/12 03:28:43;;;;;;;2.92;1.90;;;28.90;82.30;;;;;;10867741;32;20426;-70
2023/07/12 03:34:45;;;;;;;3.58;2.08;;;28.80;80.90;;;;;;10852853;32;20058;-71
2023/07/12 03:40:47;;;;;;;2.83;1.33;;;28.70;81.30;;;;;;10865132;32;20027;-71
2023/07/12 03:46:49;;;;;;;1.77;1.30;;;28.70;81.50;;;;;;10867899;32;20050;-71
2023/07/12 03:52:51;;;;;;;4.12;1.65;;;28.70;81.80;;;;;;10867124;32;20046;-70
2023/07/12 03:58:53;;;;;;;4.03;2.12;;;28.80;81.50;;;;;;10874603;32;20349;-70
2023/07/12 04:04:54;;;;;;;4.60;1.77;;;28.70;79.90;;;;;;10858950;32;20024;-71
2023/07/12 04:10:57;;;;;;;2.05;1.52;;;28.50;79.10;;;;;;10874157;32;20038;-71
2023/07/12 04:16:59;;;;;;;2.20;0.80;;;28.60;79.90;;;;;;10873826;32;20046;-71
2023/07/12 04:23:01;;;;;;;1.58;0.93;;;28.60;80.40;;;;;;10874412;32;20432;-71
2023/07/12 04:29:03;;;;;;;2.58;1.20;;;28.70;81.90;;;;;;10873587;32;20106;-71
2023/07/12 04:35:05;;;;;;;1.17;0.90;;;28.80;82.00;;;;;;10874512;32;20327;-71
2023/07/12 04:41:07;;;;;;;4.22;1.05;;;28.80;81.90;;;;;;10872937;32;20032;-71
2023/07/12 04:47:10;;;;;;;2.03;0.75;;;28.90;82.10;;;;;;10873314;32;20341;-72
2023/07/12 04:53:12;;;;;;;3.28;1.02;;;28.80;82.00;;;;;;10872150;32;20055;-71
2023/07/12 04:59:37;;;;;;;5.68;1.10;;;28.80;82.20;;;;;;10872415;32;20024;-71
2023/07/12 05:05:39;;;;;;;3.75;1.20;;;28.80;82.40;;;;;;10871738;32;20038;-71
2023/07/12 05:11:41;;;;;;;1.58;0.85;;;28.80;82.80;;;;;;10873200;32;20046;-71
2023/07/12 05:17:43;;;;;;;3.78;1.42;;;28.80;82.70;;;;;;10872338;32;20042;-71
2023/07/12 05:23:45;;;;;;;2.08;1.33;;;28.80;82.90;;;;;;10859050;32;20055;-71
2023/07/12 05:29:47;;;;;;;2.95;1.30;;;28.80;82.80;;;;;;10871049;32;20437;-71
2023/07/12 05:35:49;;;;;;;1.92;0.80;;;28.90;83.30;;;;;;10871709;32;20378;-71
2023/07/12 05:41:51;;;;;;;2.08;1.17;;;28.90;83.10;;;;;;10870856;32;20015;-71
2023/07/12 05:47:53;;;;;;;1.85;1.10;;;28.90;82.90;;;;;;10870616;32;20055;-70
2023/07/12 05:53:55;;;;;;;2.22;1.58;;;29.00;83.40;;;;;;10856279;32;20331;-71
2023/07/12 05:59:57;;;;;;;3.03;1.58;;;28.90;83.40;;;;;;10869641;32;20027;-71
2023/07/12 06:05:59;;;;;;;5.45;1.70;;;28.90;83.60;;;;;;10855505;32;20040;-71
2023/07/12 06:12:01;;;;;;;3.35;1.80;;;28.80;83.20;;;;;;10869742;32;20039;-71
2023/07/12 06:18:03;;;;;;;2.50;1.20;;;28.60;83.00;;;;;;10859315;32;20051;-71
2023/07/12 06:24:07;;;;;;;2.40;1.20;;;28.40;83.60;;;;;;10833466;32;20023;-71
2023/07/12 06:30:09;;;;;;;3.37;1.73;;;28.60;83.70;;;;;;10831549;32;20540;-71
2023/07/12 06:36:11;;;;;;;3.37;1.25;;;28.60;83.70;;;;;;10828199;32;20054;-71
2023/07/12 06:42:14;;;;;;;3.00;1.65;;;28.50;84.00;;;;;;10831806;32;20020;-70
2023/07/12 06:48:17;;;;;;;2.05;1.33;;;28.50;84.10;;;;;;10832078;32;20050;-72
2023/07/12 06:54:19;;;;;;;2.25;1.12;;;28.80;84.00;;;;;;10831300;32;20012;-73
2023/07/12 07:00:21;;;;;;;4.35;1.65;;;29.10;83.40;;;;;;10831665;32;20036;-74
2023/07/12 07:06:23;;;;;;;6.40;1.60;;;29.00;82.10;;;;;;10831470;32;20024;-73
2023/07/12 07:12:25;;;;;;;4.37;1.08;;;28.90;82.30;;;;;;10855587;32;20121;-70
2023/07/12 07:18:28;;;;;;;4.25;1.25;;;28.90;82.90;;;;;;10867642;32;20027;-70
2023/07/12 07:24:30;;;;;;;4.50;1.95;;;29.30;82.90;;;;;;10868233;32;20062;-70
2023/07/12 07:30:56;;;;;;;3.30;1.80;;;29.30;83.10;;;;;;10915143;27;20358;-72
2023/07/12 07:36:58;;;;;;;5.90;2.17;;;29.10;83.60;;;;;;10942068;32;20019;-71
2023/07/12 07:43:01;;;;;;;2.50;1.58;;;28.90;84.20;;;;;;10937391;32;20035;-70
2023/07/12 07:49:03;;;;;;;4.32;1.90;;;29.00;84.70;;;;;;10942738;32;20060;-70
2023/07/12 07:55:06;;;;;;;2.60;1.30;;;29.00;84.40;;;;;;10941860;32;20061;-72
2023/07/12 08:01:21;;;;;;;4.87;2.33;;;29.10;84.00;;;;;;10942122;32;20015;-71
2023/07/12 08:07:23;;;;;;;3.90;1.67;;;29.00;83.90;;;;;;10941786;32;20169;-71
2023/07/12 08:13:25;;;;;;;4.25;1.80;;;29.00;83.70;;;;;;10938775;32;20054;-72
2023/07/12 08:19:28;;;;;;;3.28;1.55;;;29.00;83.70;;;;;;10941545;32;20397;-71
2023/07/12 08:25:30;;;;;;;17.10;2.35;;;29.10;84.10;;;;;;10942035;32;20041;-70
2023/07/12 08:31:33;;;;;;;2.10;1.02;;;29.10;83.20;;;;;;10940927;32;20053;-70
2023/07/12 08:37:35;;;;;;;2.05;1.15;;;29.30;83.20;;;;;;10941678;32;20050;-71
2023/07/12 08:43:37;;;;;;;2.30;1.17;;;29.50;83.70;;;;;;10942492;32;20027;-72
2023/07/12 08:49:39;;;;;;;5.53;2.15;;;29.50;84.30;;;;;;10948131;32;20037;-73
2023/07/12 08:55:41;;;;;;;4.60;1.65;;;29.50;83.40;;;;;;10934166;32;20093;-73
2023/07/12 09:01:47;;;;;;;6.70;1.60;;;29.50;84.60;;;;;;10948120;32;20063;-74
2023/07/12 09:08:09;;;;;;;1.60;1.33;;;29.70;84.20;;;;;;10946621;32;20325;-72
2023/07/12 09:14:20;;;;;;;4.70;1.50;;;29.80;84.10;;;;;;10946301;32;20041;-73
2023/07/12 09:20:28;;;;;;;10.65;3.00;;;30.00;82.00;;;;;;10945970;32;20311;-72
2023/07/12 09:26:32;;;;;;;5.97;2.42;;;30.10;81.10;;;;;;10945666;32;20019;-71
2023/07/12 09:32:36;;;;;;;9.10;2.55;;;30.20;79.60;;;;;;10945522;32;20326;-72
2023/07/12 09:38:38;;;;;;;6.00;2.35;;;30.20;79.60;;;;;;10945326;32;20409;-73
2023/07/12 09:44:42;;;;;;;5.43;1.95;;;30.30;79.20;;;;;;10945224;32;20019;-73
2023/07/12 09:50:59;;;;;;;4.72;1.60;;;30.20;78.30;;;;;;10944305;32;20026;-73
2023/07/12 09:57:15;;;;;;;2.67;1.30;;;30.30;77.50;;;;;;10944666;32;20058;-73
2023/07/12 10:03:23;;;;;;;1.48;1.10;;;30.30;78.10;;;;;;10940262;32;20027;-73
2023/07/12 10:09:31;;;;;;;4.78;1.00;;;30.50;78.20;;;;;;10930745;32;20046;-73
2023/07/12 10:15:37;;;;;;;2.17;1.23;;;30.80;76.40;;;;;;10930143;32;20081;-73
2023/07/12 10:21:40;;;;;;;0.68;0.50;;;31.30;76.30;;;;;;10943543;32;20049;-72
2023/07/12 10:27:47;;;;;;;1.70;0.60;;;31.50;77.30;;;;;;10943347;32;20409;-72
2023/07/12 10:33:53;;;;;;;2.62;0.50;;;31.60;77.70;;;;;;10929891;32;20311;-72
2023/07/12 10:39:55;;;;;;;3.75;0.77;;;31.90;77.70;;;;;;10943209;32;20027;-72
2023/07/12 10:46:05;;;;;;;0.90;0.43;;;32.10;77.10;;;;;;10942877;32;20330;-71
2023/07/12 10:52:09;;;;;;;1.15;0.60;;;32.30;77.70;;;;;;10942778;32;20027;-72
2023/07/12 10:58:21;;;;;;;1.00;0.37;;;32.50;76.90;;;;;;10942579;32;20428;-72
2023/07/12 11:04:25;;;;;;;1.30;0.65;;;32.60;76.80;;;;;;10942125;32;20101;-72
2023/07/12 11:10:27;;;;;;;2.17;0.37;;;32.70;77.40;;;;;;10928679;32;20053;-72
2023/07/12 11:16:30;;;;;;;0.75;0.30;;;32.90;77.30;;;;;;10942227;32;20349;-72
2023/07/12 11:22:51;;;;;;;1.55;0.60;;;33.10;77.40;;;;;;10941930;32;20436;-73
2023/07/12 11:29:14;;;;;;;1.83;0.57;;;33.30;75.30;;;;;;10929232;32;20441;-73
2023/07/12 11:35:24;;;;;;;0.35;0.30;;;33.30;75.10;;;;;;10941715;32;20049;-72
2023/07/12 11:41:29;;;;;;;0.77;0.30;;;33.40;74.30;;;;;;10927807;32;20057;-73
2023/07/12 11:47:32;;;;;;;2.45;1.23;;;33.50;74.50;;;;;;10941563;32;20042;-73
2023/07/12 11:53:34;;;;;;;1.25;0.85;;;33.60;75.40;;;;;;10941345;32;20027;-73
2023/07/12 11:59:39;;;;;;;4.00;0.98;;;33.70;76.10;;;;;;10927780;32;20037;-72
2023/07/12 12:05:43;;;;;;;3.20;0.90;;;33.80;76.10;;;;;;10941150;32;20042;-73
2023/07/12 12:11:45;;;;;;;2.30;0.90;;;33.80;74.50;;;;;;10940908;32;20027;-72
2023/07/12 12:17:50;;;;;;;1.85;0.65;;;33.90;73.80;;;;;;10945202;32;20032;-73
2023/07/12 12:24:04;;;;;;;1.27;0.70;;;34.10;73.80;;;;;;10948163;32;20429;-73
2023/07/12 12:30:16;;;;;;;3.45;0.90;;;34.30;73.00;;;;;;10947821;32;20046;-73
2023/07/12 12:36:28;;;;;;;4.35;1.45;;;34.40;73.10;;;;;;10947739;32;20023;-71
2023/07/12 12:42:31;;;;;;;2.08;1.40;;;34.50;72.70;;;;;;10947434;32;20342;-74
2023/07/12 12:48:33;;;;;;;7.05;2.05;;;34.40;75.60;;;;;;10943365;32;20058;-72
2023/07/12 12:54:35;;;;;;;4.03;1.42;;;34.30;75.00;;;;;;10947141;32;20389;-72
2023/07/12 13:00:38;;;;;;;3.90;1.90;;;34.30;73.50;;;;;;10929373;32;20023;-72
2023/07/12 13:06:41;;;;;;;3.50;1.58;;;34.40;71.10;;;;;;10946624;32;20054;-73
2023/07/12 13:12:43;;;;;;;4.80;1.95;;;34.50;69.20;;;;;;10931352;32;20066;-73
2023/07/12 13:18:47;;;;;;;4.70;2.80;;;34.50;69.20;;;;;;10931075;32;20027;-73
2023/07/12 13:24:51;;;;;;;11.35;3.35;;;34.40;70.40;;;;;;10945712;32;20050;-72
2023/07/12 13:30:53;;;;;;;8.05;3.15;;;34.30;69.20;;;;;;10933812;32;20275;-72
2023/07/12 13:36:55;;;;;;;8.23;3.90;;;34.20;67.40;;;;;;10945651;32;20023;-72
2023/07/12 13:42:57;;;;;;;8.98;3.37;;;34.30;67.10;;;;;;10945208;32;20031;-73
2023/07/12 13:49:00;;;;;;;5.28;3.58;;;34.20;67.50;;;;;;10931246;32;20336;-74
2023/07/12 13:55:04;;;;;;;5.80;2.92;;;34.10;66.20;;;;;;10931003;32;20039;-72
2023/07/12 14:01:07;;;;;;;5.47;3.05;;;34.00;66.10;;;;;;10944530;32;20419;-72
2023/07/12 14:07:13;;;;;;;6.62;2.97;;;34.00;66.40;;;;;;10944319;32;20027;-73
2023/07/12 14:13:22;;;;;;;5.37;3.42;;;33.90;67.10;;;;;;10944379;32;20018;-72
2023/07/12 14:19:24;;;;;;;6.35;3.28;;;33.80;66.50;;;;;;10943662;32;20066;-72
2023/07/12 14:25:26;;;;;;;6.55;2.55;;;33.80;65.30;;;;;;10942802;32;20415;-71
2023/07/12 14:31:28;;;;;;;7.95;3.15;;;33.90;65.60;;;;;;10929439;32;20368;-72
2023/07/12 14:37:32;;;;;;;5.18;3.10;;;33.90;64.90;;;;;;10942729;32;20049;-72
2023/07/12 14:43:35;;;;;;;6.95;2.62;;;33.90;64.40;;;;;;10929511;32;20019;-72
2023/07/12 14:49:38;;;;;;;8.95;2.95;;;33.90;64.10;;;;;;10943003;32;20015;-73
2023/07/12 14:55:40;;;;;;;11.75;3.37;;;34.00;64.20;;;;;;10942731;32;20026;-72
2023/07/12 15:01:43;;;;;;;5.82;2.00;;;33.90;64.90;;;;;;10942494;32;20046;-72
2023/07/12 15:07:45;;;;;;;8.45;3.08;;;33.90;64.50;;;;;;10942462;32;20058;-72
2023/07/12 15:13:48;;;;;;;3.17;2.28;;;34.00;64.00;;;;;;10942317;32;20057;-72
2023/07/12 15:19:51;;;;;;;8.07;3.42;;;34.00;63.90;;;;;;10941892;32;20024;-72
2023/07/12 15:25:53;;;;;;;5.97;3.12;;;34.00;65.10;;;;;;10941304;32;20023;-74
2023/07/12 15:31:55;;;;;;;4.32;3.20;;;33.80;67.30;;;;;;10944107;27;20045;-73
2023/07/12 15:38:03;;;;;;;3.47;2.47;;;33.80;66.50;;;;;;10941797;32;20010;-72
2023/07/12 15:44:08;;;;;;;4.18;1.87;;;33.90;66.40;;;;;;10941629;32;20337;-74
2023/07/12 15:50:15;;;;;;;4.90;2.20;;;34.00;66.10;;;;;;10943936;32;20033;-73
2023/07/12 15:56:18;;;;;;;;;;;33.90;66.30;;;;;;10949418;32;20019;-72
2023/07/12 16:02:25;;;;;;;3.58;2.22;;;33.90;66.50;;;;;;10946021;32;19941;-74
2023/07/12 16:08:28;;;;;;;7.87;2.65;;;34.10;66.50;;;;;;10935163;32;20018;-72
2023/07/12 16:14:33;;;;;;;7.25;3.28;;;33.90;66.80;;;;;;10948371;32;20023;-73
2023/07/12 16:20:35;;;;;;;4.95;2.10;;;34.00;66.50;;;;;;10948124;32;20026;-72
2023/07/12 16:26:38;;;;;;;7.25;2.78;;;33.90;67.70;;;;;;10948123;32;20015;-72
2023/07/12 16:32:42;;;;;;;4.68;2.40;;;33.90;67.40;;;;;;10943480;32;20409;-72
2023/07/12 16:38:44;;;;;;;5.03;2.50;;;34.00;67.10;;;;;;10934028;32;20470;-72
2023/07/12 16:44:46;;;;;;;12.52;4.57;;;34.00;67.00;;;;;;10947602;32;20353;-73
2023/07/12 16:50:49;;;;;;;9.63;3.87;;;34.00;66.80;;;;;;10946923;32;20015;-72
2023/07/12 16:56:52;;;;;;;15.18;4.32;;;33.90;66.40;;;;;;10946954;32;20023;-71
2023/07/12 17:02:54;;;;;;;11.93;3.50;;;33.80;65.90;;;;;;10945488;32;20076;-72
2023/07/12 17:08:56;;;;;;;5.70;3.85;;;33.70;65.20;;;;;;10946512;32;20014;-72
2023/07/12 17:14:58;;;;;;;9.05;4.07;;;33.60;65.60;;;;;;10946460;32;20019;-71
2023/07/12 17:21:01;;;;;;;4.93;3.15;;;33.60;66.80;;;;;;10946165;32;20435;-71
2023/07/12 17:27:04;;;;;;;5.12;3.22;;;33.60;67.40;;;;;;10945980;32;20053;-72
2023/07/12 17:33:11;;;;;;;4.72;2.45;;;33.60;67.40;;;;;;10932306;32;20023;-72
2023/07/12 17:39:14;;;;;;;5.65;3.28;;;33.50;67.50;;;;;;10945457;32;20050;-72
2023/07/12 17:45:18;;;;;;;8.27;3.47;;;33.50;68.40;;;;;;10981281;32;20030;-72
2023/07/12 17:51:25;;;;;;;6.93;2.95;;;33.40;69.00;;;;;;10979180;32;20046;-72
2023/07/12 17:57:27;;;;;;;3.97;2.67;;;33.40;69.20;;;;;;10982401;32;20042;-72
2023/07/12 18:03:30;;;;;;;5.30;2.42;;;33.50;69.80;;;;;;10983499;32;20023;-71
2023/07/12 18:09:32;;;;;;;9.35;2.58;;;33.40;69.90;;;;;;10982179;32;20045;-71
2023/07/12 18:15:35;;;;;;;12.32;2.80;;;33.40;70.20;;;;;;10981887;32;20058;-71
2023/07/12 18:21:37;;;;;;;4.15;2.72;;;33.20;70.60;;;;;;10967791;32;20039;-72
2023/07/12 18:27:41;;;;;;;4.45;2.55;;;33.00;71.00;;;;;;10968025;32;20049;-72
2023/07/12 18:33:43;;;;;;;5.43;2.42;;;32.80;71.70;;;;;;10981191;32;20026;-73
2023/07/12 18:39:47;;;;;;;6.45;2.67;;;32.70;72.70;;;;;;10980941;32;20349;-72
2023/07/12 18:45:51;;;;;;;5.20;1.83;;;32.40;73.20;;;;;;10980696;32;20380;-72
2023/07/12 18:51:55;;;;;;;7.65;3.55;;;32.30;73.50;;;;;;10980675;32;20045;-72
2023/07/12 18:57:59;;;;;;;8.02;3.28;;;32.20;74.00;;;;;;10980293;32;20038;-72
2023/07/12 19:04:05;;;;;;;5.53;3.00;;;32.10;74.60;;;;;;10980189;32;20389;-72
2023/07/12 19:10:12;;;;;;;7.22;2.37;;;32.20;75.00;;;;;;10980090;32;20031;-72
2023/07/12 19:16:15;;;;;;;3.33;1.75;;;32.20;75.40;;;;;;10966224;32;20054;-72
2023/07/12 19:22:19;;;;;;;3.72;2.30;;;32.20;75.60;;;;;;10966397;32;20047;-72
2023/07/12 19:28:22;;;;;;;5.40;2.17;;;32.10;75.70;;;;;;10972148;32;20046;-72
2023/07/12 19:34:25;;;;;;;5.55;2.87;;;32.10;75.70;;;;;;10941884;32;20049;-71
2023/07/12 19:40:30;;;;;;;8.77;2.58;;;32.00;75.70;;;;;;10928302;32;20027;-71
2023/07/12 19:46:33;;;;;;;8.13;2.50;;;31.90;75.60;;;;;;10941564;32;20019;-72
2023/07/12 19:52:35;;;;;;;5.43;2.67;;;31.80;76.00;;;;;;10941587;32;20069;-72
2023/07/12 19:58:38;;;;;;;5.32;2.90;;;31.60;76.90;;;;;;10941273;32;20405;-71
2023/07/12 20:04:40;;;;;;;10.43;2.80;;;31.50;77.20;;;;;;10941136;32;20342;-71
2023/07/12 20:10:42;;;;;;;6.37;2.70;;;31.60;77.70;;;;;;10927696;32;20023;-72
2023/07/12 20:16:45;;;;;;;5.82;2.70;;;31.50;78.60;;;;;;10927615;32;20452;-71
2023/07/12 20:22:47;;;;;;;5.53;2.80;;;31.40;78.90;;;;;;10940865;32;20404;-72
2023/07/12 20:28:50;;;;;;;6.07;2.75;;;31.40;78.40;;;;;;10940797;32;20418;-71
2023/07/12 20:34:52;;;;;;;9.15;2.70;;;31.40;78.60;;;;;;10938862;32;20047;-71
2023/07/12 20:40:54;;;;;;;8.57;2.50;;;31.40;78.60;;;;;;10933646;32;20047;-71
2023/07/12 20:46:56;;;;;;;5.22;3.05;;;31.30;78.40;;;;;;10947525;32;20039;-72
2023/07/12 20:52:59;;;;;;;6.12;3.03;;;31.20;78.60;;;;;;10947318;32;20350;-71
2023/07/12 20:59:02;;;;;;;5.50;2.87;;;31.10;78.60;;;;;;10933311;32;20050;-72
2023/07/12 21:05:05;;;;;;;7.03;2.65;;;31.20;78.70;;;;;;10946954;32;20046;-72
2023/07/12 21:11:07;;;;;;;7.25;3.67;;;31.20;78.60;;;;;;10946756;32;20022;-71
2023/07/12 21:17:10;;;;;;;5.43;2.90;;;31.10;78.70;;;;;;10933694;32;20409;-72
2023/07/12 21:23:13;;;;;;;4.32;2.50;;;31.00;78.80;;;;;;10946173;32;20357;-72
2023/07/12 21:29:15;;;;;;;7.35;3.03;;;30.90;78.90;;;;;;10945987;32;20055;-71
2023/07/12 21:35:19;;;;;;;6.28;3.75;;;31.00;78.90;;;;;;10945919;32;20023;-71
2023/07/12 21:41:23;;;;;;;7.95;2.90;;;30.90;79.30;;;;;;10945605;32;20045;-72
2023/07/12 21:47:25;;;;;;;4.10;2.53;;;30.90;79.90;;;;;;10945163;32;20054;-71
2023/07/12 21:53:27;;;;;;;5.37;2.80;;;30.80;80.10;;;;;;10945181;32;20435;-72
2023/07/12 21:59:44;;;;;;;8.27;2.75;;;30.80;80.30;;;;;;10927112;32;20056;-71
2023/07/12 22:05:48;;;;;;;5.15;2.78;;;30.70;80.70;;;;;;10944676;32;20011;-71
2023/07/12 22:11:50;;;;;;;6.72;3.20;;;30.60;80.70;;;;;;10944424;32;20014;-73
2023/07/12 22:17:53;;;;;;;6.18;3.25;;;30.50;80.50;;;;;;10944368;32;20027;-72
2023/07/12 22:23:57;;;;;;;5.70;2.65;;;30.40;80.20;;;;;;10940151;32;20027;-72
2023/07/12 22:30:01;;;;;;;4.00;2.67;;;30.50;80.40;;;;;;10943793;32;20019;-73
2023/07/12 22:36:08;;;;;;;7.35;3.55;;;30.60;80.40;;;;;;10929741;32;20085;-72
2023/07/12 22:42:11;;;;;;;9.60;3.17;;;30.50;79.60;;;;;;10941883;32;20027;-72
2023/07/12 22:48:13;;;;;;;5.37;3.95;;;30.30;79.60;;;;;;10943308;32;20303;-72
2023/07/12 22:54:20;;;;;;;5.50;3.10;;;30.30;79.50;;;;;;10943070;32;20023;-72
2023/07/12 23:00:26;;;;;;;4.85;2.37;;;30.10;79.70;;;;;;10942279;32;20114;-74
2023/07/12 23:06:31;;;;;;;8.18;2.92;;;30.30;80.00;;;;;;10942674;32;20041;-71
2023/07/12 23:12:35;;;;;;;6.43;2.90;;;30.30;79.90;;;;;;10942450;32;20390;-71
2023/07/12 23:18:38;;;;;;;4.47;3.10;;;30.30;79.90;;;;;;10928885;32;20022;-71
2023/07/12 23:24:45;;;;;;;8.13;4.32;;;30.40;79.80;;;;;;10942281;32;20027;-70
2023/07/12 23:30:48;;;;;;;19.75;3.95;;;30.10;74.00;;;;;;10407294;32;15144744;-71
2023/07/12 23:36:50;;;;;;;7.03;2.65;;;29.20;67.00;;;;;;10826812;32;20054;-71
2023/07/12 23:42:52;;;;;;;3.85;2.72;;;28.80;70.60;;;;;;10826000;33;20051;-73
2023/07/12 23:49:24;;;;;;;6.40;3.40;;;28.90;74.50;;;;;;10826424;32;20155;-72
2023/07/12 23:55:26;;;;;;;3.83;2.03;;;29.30;74.80;;;;;;10854568;32;20027;-73
